sensor_id;sensor_type;location;lat;lon;timestamp;P1;durP1;ratioP1;P2;durP2;ratioP2
43620;SDS011;29213;50.770;7.298;2023-04-08T00:00:24;29.17;;;20.15;;
43620;SDS011;29213;50.770;7.298;2023-04-08T00:02:50;29.33;;;19.83;;
43620;SDS011;29213;50.770;7.298;2023-04-08T00:05:15;27.08;;;20.02;;
43620;SDS011;29213;50.770;7.298;2023-04-08T00:07:41;29.50;;;20.88;;
43620;SDS011;29213;50.770;7.298;2023-04-08T00:10:06;33.88;;;21.35;;
43620;SDS011;29213;50.770;7.298;2023-04-08T00:12:32;30.98;;;21.85;;
43620;SDS011;29213;50.770;7.298;2023-04-08T00:14:58;30.77;;;21.17;;
43620;SDS011;29213;50.770;7.298;2023-04-08T00:17:23;31.88;;;21.05;;
43620;SDS011;29213;50.770;7.298;2023-04-08T00:19:48;30.85;;;21.25;;
43620;SDS011;29213;50.770;7.298;2023-04-08T00:22:14;31.35;;;21.80;;
43620;SDS011;29213;50.770;7.298;2023-04-08T00:24:39;33.05;;;20.75;;
43620;SDS011;29213;50.770;7.298;2023-04-08T00:27:05;31.73;;;21.23;;
43620;SDS011;29213;50.770;7.298;2023-04-08T00:29:30;33.67;;;21.30;;
43620;SDS011;29213;50.770;7.298;2023-04-08T00:31:56;29.52;;;20.45;;
43620;SDS011;29213;50.770;7.298;2023-04-08T00:34:22;28.58;;;20.95;;
43620;SDS011;29213;50.770;7.298;2023-04-08T00:36:47;29.27;;;19.63;;
43620;SDS011;29213;50.770;7.298;2023-04-08T00:39:13;26.73;;;20.10;;
43620;SDS011;29213;50.770;7.298;2023-04-08T00:41:39;30.55;;;20.23;;
43620;SDS011;29213;50.770;7.298;2023-04-08T00:44:04;28.40;;;20.08;;
43620;SDS011;29213;50.770;7.298;2023-04-08T00:46:30;30.55;;;20.85;;
43620;SDS011;29213;50.770;7.298;2023-04-08T00:49:00;28.90;;;20.88;;
43620;SDS011;29213;50.770;7.298;2023-04-08T00:51:27;31.55;;;21.80;;
43620;SDS011;29213;50.770;7.298;2023-04-08T00:53:54;30.70;;;20.95;;
43620;SDS011;29213;50.770;7.298;2023-04-08T00:56:20;30.15;;;20.98;;
43620;SDS011;29213;50.770;7.298;2023-04-08T00:58:46;32.30;;;21.55;;
43620;SDS011;29213;50.770;7.298;2023-04-08T01:04:12;26.45;;;19.30;;
43620;SDS011;29213;50.770;7.298;2023-04-08T01:06:45;28.17;;;20.55;;
43620;SDS011;29213;50.770;7.298;2023-04-08T01:09:17;26.58;;;19.20;;
43620;SDS011;29213;50.770;7.298;2023-04-08T01:11:45;29.92;;;19.77;;
43620;SDS011;29213;50.770;7.298;2023-04-08T01:14:16;26.77;;;18.93;;
43620;SDS011;29213;50.770;7.298;2023-04-08T01:16:48;26.70;;;19.33;;
43620;SDS011;29213;50.770;7.298;2023-04-08T01:19:17;28.60;;;20.35;;
43620;SDS011;29213;50.770;7.298;2023-04-08T01:21:56;29.80;;;18.77;;
43620;SDS011;29213;50.770;7.298;2023-04-08T01:24:28;27.00;;;19.85;;
43620;SDS011;29213;50.770;7.298;2023-04-08T01:29:24;31.85;;;20.23;;
43620;SDS011;29213;50.770;7.298;2023-04-08T01:31:50;29.45;;;19.52;;
43620;SDS011;29213;50.770;7.298;2023-04-08T01:34:17;27.50;;;20.23;;
43620;SDS011;29213;50.770;7.298;2023-04-08T01:36:44;31.80;;;20.15;;
43620;SDS011;29213;50.770;7.298;2023-04-08T01:39:11;31.48;;;21.30;;
43620;SDS011;29213;50.770;7.298;2023-04-08T01:41:38;30.58;;;21.20;;
43620;SDS011;29213;50.770;7.298;2023-04-08T01:44:04;33.10;;;23.38;;
43620;SDS011;29213;50.770;7.298;2023-04-08T01:46:30;32.42;;;22.13;;
43620;SDS011;29213;50.770;7.298;2023-04-08T01:48:57;29.92;;;20.85;;
43620;SDS011;29213;50.770;7.298;2023-04-08T01:51:23;29.92;;;22.17;;
43620;SDS011;29213;50.770;7.298;2023-04-08T01:53:50;32.38;;;21.13;;
43620;SDS011;29213;50.770;7.298;2023-04-08T01:56:16;33.65;;;20.67;;
43620;SDS011;29213;50.770;7.298;2023-04-08T01:58:45;29.67;;;21.08;;
43620;SDS011;29213;50.770;7.298;2023-04-08T02:01:17;33.15;;;21.90;;
43620;SDS011;29213;50.770;7.298;2023-04-08T02:03:45;29.88;;;20.35;;
43620;SDS011;29213;50.770;7.298;2023-04-08T02:06:12;36.50;;;23.17;;
43620;SDS011;29213;50.770;7.298;2023-04-08T02:08:37;29.77;;;20.60;;
43620;SDS011;29213;50.770;7.298;2023-04-08T02:11:03;32.80;;;21.38;;
43620;SDS011;29213;50.770;7.298;2023-04-08T02:13:29;31.17;;;21.27;;
43620;SDS011;29213;50.770;7.298;2023-04-08T02:15:59;27.98;;;20.33;;
43620;SDS011;29213;50.770;7.298;2023-04-08T02:18:28;32.53;;;20.58;;
43620;SDS011;29213;50.770;7.298;2023-04-08T02:21:05;30.17;;;18.85;;
43620;SDS011;29213;50.770;7.298;2023-04-08T02:23:34;28.50;;;19.42;;
43620;SDS011;29213;50.770;7.298;2023-04-08T02:26:04;26.52;;;19.17;;
43620;SDS011;29213;50.770;7.298;2023-04-08T02:28:36;25.60;;;18.25;;
43620;SDS011;29213;50.770;7.298;2023-04-08T02:31:03;30.33;;;19.08;;
43620;SDS011;29213;50.770;7.298;2023-04-08T02:33:32;29.92;;;18.77;;
43620;SDS011;29213;50.770;7.298;2023-04-08T02:35:59;31.33;;;20.67;;
43620;SDS011;29213;50.770;7.298;2023-04-08T02:38:27;27.92;;;19.75;;
43620;SDS011;29213;50.770;7.298;2023-04-08T02:40:54;28.42;;;19.65;;
43620;SDS011;29213;50.770;7.298;2023-04-08T02:43:20;28.00;;;19.95;;
43620;SDS011;29213;50.770;7.298;2023-04-08T02:45:46;29.23;;;19.17;;
43620;SDS011;29213;50.770;7.298;2023-04-08T02:48:11;28.02;;;19.42;;
43620;SDS011;29213;50.770;7.298;2023-04-08T02:50:37;26.88;;;20.17;;
43620;SDS011;29213;50.770;7.298;2023-04-08T02:53:03;31.00;;;19.30;;
43620;SDS011;29213;50.770;7.298;2023-04-08T02:55:29;35.38;;;22.67;;
43620;SDS011;29213;50.770;7.298;2023-04-08T02:57:55;32.13;;;21.75;;
43620;SDS011;29213;50.770;7.298;2023-04-08T03:00:20;27.88;;;19.58;;
43620;SDS011;29213;50.770;7.298;2023-04-08T03:02:46;26.65;;;19.65;;
43620;SDS011;29213;50.770;7.298;2023-04-08T03:05:11;30.77;;;21.50;;
43620;SDS011;29213;50.770;7.298;2023-04-08T03:07:36;27.83;;;19.70;;
43620;SDS011;29213;50.770;7.298;2023-04-08T03:10:02;30.80;;;20.83;;
43620;SDS011;29213;50.770;7.298;2023-04-08T03:12:28;32.28;;;21.83;;
43620;SDS011;29213;50.770;7.298;2023-04-08T03:14:53;33.20;;;22.30;;
43620;SDS011;29213;50.770;7.298;2023-04-08T03:17:20;30.95;;;21.60;;
43620;SDS011;29213;50.770;7.298;2023-04-08T03:19:45;34.95;;;22.85;;
43620;SDS011;29213;50.770;7.298;2023-04-08T03:22:11;31.95;;;21.83;;
43620;SDS011;29213;50.770;7.298;2023-04-08T03:24:37;29.13;;;20.20;;
43620;SDS011;29213;50.770;7.298;2023-04-08T03:27:03;32.65;;;22.38;;
43620;SDS011;29213;50.770;7.298;2023-04-08T03:29:28;31.83;;;21.20;;
43620;SDS011;29213;50.770;7.298;2023-04-08T03:31:53;32.03;;;21.60;;
43620;SDS011;29213;50.770;7.298;2023-04-08T03:34:19;26.58;;;19.23;;
43620;SDS011;29213;50.770;7.298;2023-04-08T03:36:44;31.00;;;21.38;;
43620;SDS011;29213;50.770;7.298;2023-04-08T03:39:10;26.02;;;18.75;;
43620;SDS011;29213;50.770;7.298;2023-04-08T03:41:36;24.35;;;18.63;;
43620;SDS011;29213;50.770;7.298;2023-04-08T03:44:01;24.88;;;18.60;;
43620;SDS011;29213;50.770;7.298;2023-04-08T03:46:27;25.35;;;18.05;;
43620;SDS011;29213;50.770;7.298;2023-04-08T03:48:52;26.77;;;18.08;;
43620;SDS011;29213;50.770;7.298;2023-04-08T03:51:17;25.13;;;18.10;;
43620;SDS011;29213;50.770;7.298;2023-04-08T03:53:43;22.63;;;17.30;;
43620;SDS011;29213;50.770;7.298;2023-04-08T03:56:08;25.38;;;18.25;;
43620;SDS011;29213;50.770;7.298;2023-04-08T03:58:34;23.58;;;17.73;;
43620;SDS011;29213;50.770;7.298;2023-04-08T04:00:59;26.42;;;18.63;;
43620;SDS011;29213;50.770;7.298;2023-04-08T04:03:24;24.80;;;17.60;;
43620;SDS011;29213;50.770;7.298;2023-04-08T04:05:50;24.88;;;17.05;;
43620;SDS011;29213;50.770;7.298;2023-04-08T04:08:15;23.90;;;17.83;;
43620;SDS011;29213;50.770;7.298;2023-04-08T04:10:41;23.17;;;17.13;;
43620;SDS011;29213;50.770;7.298;2023-04-08T04:13:06;25.17;;;18.27;;
43620;SDS011;29213;50.770;7.298;2023-04-08T04:15:32;24.83;;;18.42;;
43620;SDS011;29213;50.770;7.298;2023-04-08T04:17:57;22.13;;;16.40;;
43620;SDS011;29213;50.770;7.298;2023-04-08T04:20:22;24.40;;;18.40;;
43620;SDS011;29213;50.770;7.298;2023-04-08T04:22:50;24.42;;;17.60;;
43620;SDS011;29213;50.770;7.298;2023-04-08T04:25:15;23.38;;;17.10;;
43620;SDS011;29213;50.770;7.298;2023-04-08T04:27:41;24.45;;;17.30;;
43620;SDS011;29213;50.770;7.298;2023-04-08T04:30:07;24.75;;;18.58;;
43620;SDS011;29213;50.770;7.298;2023-04-08T04:32:33;24.42;;;17.73;;
43620;SDS011;29213;50.770;7.298;2023-04-08T04:34:59;22.67;;;16.92;;
43620;SDS011;29213;50.770;7.298;2023-04-08T04:37:24;26.20;;;18.33;;
43620;SDS011;29213;50.770;7.298;2023-04-08T04:39:50;22.52;;;16.45;;
43620;SDS011;29213;50.770;7.298;2023-04-08T04:42:15;22.27;;;17.02;;
43620;SDS011;29213;50.770;7.298;2023-04-08T04:44:41;25.52;;;18.25;;
43620;SDS011;29213;50.770;7.298;2023-04-08T04:47:06;24.23;;;17.70;;
43620;SDS011;29213;50.770;7.298;2023-04-08T04:49:32;24.92;;;17.33;;
43620;SDS011;29213;50.770;7.298;2023-04-08T04:51:57;24.60;;;17.42;;
43620;SDS011;29213;50.770;7.298;2023-04-08T04:54:22;24.25;;;17.48;;
43620;SDS011;29213;50.770;7.298;2023-04-08T04:56:48;23.25;;;16.75;;
43620;SDS011;29213;50.770;7.298;2023-04-08T04:59:13;23.20;;;17.17;;
43620;SDS011;29213;50.770;7.298;2023-04-08T05:01:39;22.55;;;15.95;;
43620;SDS011;29213;50.770;7.298;2023-04-08T05:04:05;23.75;;;17.52;;
43620;SDS011;29213;50.770;7.298;2023-04-08T05:06:31;15.95;;;11.05;;
43620;SDS011;29213;50.770;7.298;2023-04-08T05:08:57;13.65;;;8.30;;
43620;SDS011;29213;50.770;7.298;2023-04-08T05:11:22;18.83;;;14.20;;
43620;SDS011;29213;50.770;7.298;2023-04-08T05:13:48;24.80;;;16.83;;
43620;SDS011;29213;50.770;7.298;2023-04-08T05:16:13;24.02;;;17.88;;
43620;SDS011;29213;50.770;7.298;2023-04-08T05:18:39;24.00;;;17.27;;
43620;SDS011;29213;50.770;7.298;2023-04-08T05:21:05;21.45;;;16.02;;
43620;SDS011;29213;50.770;7.298;2023-04-08T05:23:30;22.35;;;16.77;;
43620;SDS011;29213;50.770;7.298;2023-04-08T05:25:55;23.17;;;17.27;;
43620;SDS011;29213;50.770;7.298;2023-04-08T05:28:21;22.55;;;17.00;;
43620;SDS011;29213;50.770;7.298;2023-04-08T05:30:49;25.42;;;18.13;;
43620;SDS011;29213;50.770;7.298;2023-04-08T05:33:16;26.65;;;18.50;;
43620;SDS011;29213;50.770;7.298;2023-04-08T05:35:42;25.00;;;18.20;;
43620;SDS011;29213;50.770;7.298;2023-04-08T05:38:07;26.27;;;18.83;;
43620;SDS011;29213;50.770;7.298;2023-04-08T05:40:32;25.40;;;18.40;;
43620;SDS011;29213;50.770;7.298;2023-04-08T05:42:58;24.90;;;17.65;;
43620;SDS011;29213;50.770;7.298;2023-04-08T05:45:23;24.75;;;17.65;;
43620;SDS011;29213;50.770;7.298;2023-04-08T05:47:49;22.75;;;16.35;;
43620;SDS011;29213;50.770;7.298;2023-04-08T05:50:14;21.90;;;16.23;;
43620;SDS011;29213;50.770;7.298;2023-04-08T05:52:43;22.83;;;16.75;;
43620;SDS011;29213;50.770;7.298;2023-04-08T05:55:10;21.33;;;15.80;;
43620;SDS011;29213;50.770;7.298;2023-04-08T05:57:36;22.85;;;16.17;;
43620;SDS011;29213;50.770;7.298;2023-04-08T06:00:02;20.55;;;15.57;;
43620;SDS011;29213;50.770;7.298;2023-04-08T06:02:32;22.30;;;16.40;;
43620;SDS011;29213;50.770;7.298;2023-04-08T06:04:57;18.95;;;14.75;;
43620;SDS011;29213;50.770;7.298;2023-04-08T06:07:23;21.42;;;16.10;;
43620;SDS011;29213;50.770;7.298;2023-04-08T06:09:48;21.00;;;16.15;;
43620;SDS011;29213;50.770;7.298;2023-04-08T06:12:14;22.02;;;16.58;;
43620;SDS011;29213;50.770;7.298;2023-04-08T06:14:39;22.05;;;15.93;;
43620;SDS011;29213;50.770;7.298;2023-04-08T06:17:05;21.77;;;15.93;;
43620;SDS011;29213;50.770;7.298;2023-04-08T06:19:30;21.30;;;15.73;;
43620;SDS011;29213;50.770;7.298;2023-04-08T06:21:56;21.83;;;16.40;;
43620;SDS011;29213;50.770;7.298;2023-04-08T06:24:26;21.27;;;16.00;;
43620;SDS011;29213;50.770;7.298;2023-04-08T06:26:53;19.63;;;14.82;;
43620;SDS011;29213;50.770;7.298;2023-04-08T06:29:20;20.20;;;15.75;;
43620;SDS011;29213;50.770;7.298;2023-04-08T06:31:46;19.30;;;14.32;;
43620;SDS011;29213;50.770;7.298;2023-04-08T06:34:11;20.70;;;15.13;;
43620;SDS011;29213;50.770;7.298;2023-04-08T06:36:37;21.35;;;15.18;;
43620;SDS011;29213;50.770;7.298;2023-04-08T06:39:03;20.70;;;14.15;;
43620;SDS011;29213;50.770;7.298;2023-04-08T06:41:28;19.23;;;14.32;;
43620;SDS011;29213;50.770;7.298;2023-04-08T06:43:54;20.23;;;14.13;;
43620;SDS011;29213;50.770;7.298;2023-04-08T06:46:20;20.80;;;15.57;;
43620;SDS011;29213;50.770;7.298;2023-04-08T06:48:45;19.90;;;14.50;;
43620;SDS011;29213;50.770;7.298;2023-04-08T06:51:11;19.60;;;14.25;;
43620;SDS011;29213;50.770;7.298;2023-04-08T06:53:37;20.52;;;15.30;;
43620;SDS011;29213;50.770;7.298;2023-04-08T06:56:05;21.38;;;15.77;;
43620;SDS011;29213;50.770;7.298;2023-04-08T06:58:31;22.50;;;15.75;;
43620;SDS011;29213;50.770;7.298;2023-04-08T07:00:57;19.80;;;15.25;;
43620;SDS011;29213;50.770;7.298;2023-04-08T07:03:23;20.85;;;14.90;;
43620;SDS011;29213;50.770;7.298;2023-04-08T07:05:49;22.52;;;16.55;;
43620;SDS011;29213;50.770;7.298;2023-04-08T07:08:15;21.85;;;15.77;;
43620;SDS011;29213;50.770;7.298;2023-04-08T07:10:40;21.13;;;16.13;;
43620;SDS011;29213;50.770;7.298;2023-04-08T07:13:06;22.50;;;16.13;;
43620;SDS011;29213;50.770;7.298;2023-04-08T07:15:31;21.05;;;15.52;;
43620;SDS011;29213;50.770;7.298;2023-04-08T07:17:56;21.92;;;15.60;;
43620;SDS011;29213;50.770;7.298;2023-04-08T07:20:31;23.08;;;16.65;;
43620;SDS011;29213;50.770;7.298;2023-04-08T07:23:02;23.80;;;17.02;;
43620;SDS011;29213;50.770;7.298;2023-04-08T07:25:28;26.90;;;19.20;;
43620;SDS011;29213;50.770;7.298;2023-04-08T07:27:53;24.27;;;17.95;;
43620;SDS011;29213;50.770;7.298;2023-04-08T07:30:18;27.55;;;19.52;;
43620;SDS011;29213;50.770;7.298;2023-04-08T07:32:44;28.33;;;18.50;;
43620;SDS011;29213;50.770;7.298;2023-04-08T07:35:12;27.65;;;19.35;;
43620;SDS011;29213;50.770;7.298;2023-04-08T07:37:38;26.17;;;18.40;;
43620;SDS011;29213;50.770;7.298;2023-04-08T07:40:04;25.63;;;17.67;;
43620;SDS011;29213;50.770;7.298;2023-04-08T07:42:30;26.90;;;18.30;;
43620;SDS011;29213;50.770;7.298;2023-04-08T07:44:56;27.10;;;18.10;;
43620;SDS011;29213;50.770;7.298;2023-04-08T07:47:21;26.38;;;18.75;;
43620;SDS011;29213;50.770;7.298;2023-04-08T07:49:47;25.92;;;18.25;;
43620;SDS011;29213;50.770;7.298;2023-04-08T07:52:12;26.50;;;18.80;;
43620;SDS011;29213;50.770;7.298;2023-04-08T07:54:37;27.15;;;18.35;;
43620;SDS011;29213;50.770;7.298;2023-04-08T07:57:03;26.60;;;18.67;;
43620;SDS011;29213;50.770;7.298;2023-04-08T07:59:28;26.52;;;18.50;;
43620;SDS011;29213;50.770;7.298;2023-04-08T08:01:54;26.77;;;18.52;;
43620;SDS011;29213;50.770;7.298;2023-04-08T08:04:20;26.42;;;18.88;;
43620;SDS011;29213;50.770;7.298;2023-04-08T08:06:46;27.15;;;19.30;;
43620;SDS011;29213;50.770;7.298;2023-04-08T08:09:11;26.83;;;18.73;;
43620;SDS011;29213;50.770;7.298;2023-04-08T08:11:37;31.08;;;18.63;;
43620;SDS011;29213;50.770;7.298;2023-04-08T08:14:03;25.52;;;17.23;;
43620;SDS011;29213;50.770;7.298;2023-04-08T08:16:29;26.70;;;18.58;;
43620;SDS011;29213;50.770;7.298;2023-04-08T08:18:56;26.77;;;18.95;;
43620;SDS011;29213;50.770;7.298;2023-04-08T08:21:28;26.08;;;17.95;;
43620;SDS011;29213;50.770;7.298;2023-04-08T08:23:54;26.98;;;17.80;;
43620;SDS011;29213;50.770;7.298;2023-04-08T08:26:20;23.85;;;17.33;;
43620;SDS011;29213;50.770;7.298;2023-04-08T08:28:46;26.67;;;19.00;;
43620;SDS011;29213;50.770;7.298;2023-04-08T08:31:11;25.60;;;17.90;;
43620;SDS011;29213;50.770;7.298;2023-04-08T08:33:37;26.05;;;18.10;;
43620;SDS011;29213;50.770;7.298;2023-04-08T08:36:03;24.98;;;18.38;;
43620;SDS011;29213;50.770;7.298;2023-04-08T08:38:29;23.90;;;16.63;;
43620;SDS011;29213;50.770;7.298;2023-04-08T08:40:58;24.70;;;16.30;;
43620;SDS011;29213;50.770;7.298;2023-04-08T08:43:27;23.67;;;17.20;;
43620;SDS011;29213;50.770;7.298;2023-04-08T08:45:57;25.33;;;18.27;;
43620;SDS011;29213;50.770;7.298;2023-04-08T08:48:24;23.90;;;17.08;;
43620;SDS011;29213;50.770;7.298;2023-04-08T08:50:49;26.13;;;18.05;;
43620;SDS011;29213;50.770;7.298;2023-04-08T08:53:18;21.92;;;15.43;;
43620;SDS011;29213;50.770;7.298;2023-04-08T08:56:21;24.25;;;17.40;;
43620;SDS011;29213;50.770;7.298;2023-04-08T08:58:46;23.60;;;17.17;;
43620;SDS011;29213;50.770;7.298;2023-04-08T09:01:29;24.63;;;18.13;;
43620;SDS011;29213;50.770;7.298;2023-04-08T09:04:05;24.00;;;17.50;;
43620;SDS011;29213;50.770;7.298;2023-04-08T09:06:32;24.30;;;17.33;;
43620;SDS011;29213;50.770;7.298;2023-04-08T09:08:58;23.95;;;17.90;;
43620;SDS011;29213;50.770;7.298;2023-04-08T09:11:23;24.50;;;18.13;;
43620;SDS011;29213;50.770;7.298;2023-04-08T09:13:48;22.65;;;16.98;;
43620;SDS011;29213;50.770;7.298;2023-04-08T09:16:15;22.42;;;16.60;;
43620;SDS011;29213;50.770;7.298;2023-04-08T09:18:43;25.10;;;17.65;;
43620;SDS011;29213;50.770;7.298;2023-04-08T09:21:10;24.58;;;18.27;;
43620;SDS011;29213;50.770;7.298;2023-04-08T09:23:37;23.02;;;17.42;;
43620;SDS011;29213;50.770;7.298;2023-04-08T09:26:11;24.55;;;18.05;;
43620;SDS011;29213;50.770;7.298;2023-04-08T09:28:41;24.10;;;17.33;;
43620;SDS011;29213;50.770;7.298;2023-04-08T09:31:23;26.05;;;18.63;;
43620;SDS011;29213;50.770;7.298;2023-04-08T09:33:52;26.20;;;18.65;;
43620;SDS011;29213;50.770;7.298;2023-04-08T09:36:25;25.10;;;17.63;;
43620;SDS011;29213;50.770;7.298;2023-04-08T09:38:51;23.10;;;16.42;;
43620;SDS011;29213;50.770;7.298;2023-04-08T09:41:18;23.05;;;15.75;;
43620;SDS011;29213;50.770;7.298;2023-04-08T09:43:55;21.17;;;15.52;;
43620;SDS011;29213;50.770;7.298;2023-04-08T09:46:42;23.48;;;17.20;;
43620;SDS011;29213;50.770;7.298;2023-04-08T09:49:24;24.50;;;17.27;;
43620;SDS011;29213;50.770;7.298;2023-04-08T09:59:56;25.02;;;16.42;;
43620;SDS011;29213;50.770;7.298;2023-04-08T10:02:29;25.95;;;17.35;;
43620;SDS011;29213;50.770;7.298;2023-04-08T10:05:03;22.75;;;16.27;;
43620;SDS011;29213;50.770;7.298;2023-04-08T10:07:30;23.63;;;16.67;;
43620;SDS011;29213;50.770;7.298;2023-04-08T10:09:56;24.63;;;17.63;;
43620;SDS011;29213;50.770;7.298;2023-04-08T10:12:22;21.15;;;16.02;;
43620;SDS011;29213;50.770;7.298;2023-04-08T10:17:46;19.17;;;13.00;;
43620;SDS011;29213;50.770;7.298;2023-04-08T10:23:03;21.05;;;15.15;;
43620;SDS011;29213;50.770;7.298;2023-04-08T10:25:36;23.02;;;16.25;;
43620;SDS011;29213;50.770;7.298;2023-04-08T10:30:48;20.73;;;15.15;;
43620;SDS011;29213;50.770;7.298;2023-04-08T10:33:15;20.67;;;16.38;;
43620;SDS011;29213;50.770;7.298;2023-04-08T10:35:47;23.77;;;17.60;;
43620;SDS011;29213;50.770;7.298;2023-04-08T10:38:14;22.70;;;15.73;;
43620;SDS011;29213;50.770;7.298;2023-04-08T10:40:40;22.52;;;16.30;;
43620;SDS011;29213;50.770;7.298;2023-04-08T10:43:07;22.65;;;16.10;;
43620;SDS011;29213;50.770;7.298;2023-04-08T10:45:37;21.17;;;14.95;;
43620;SDS011;29213;50.770;7.298;2023-04-08T10:50:42;21.52;;;15.85;;
43620;SDS011;29213;50.770;7.298;2023-04-08T10:53:09;22.02;;;16.08;;
43620;SDS011;29213;50.770;7.298;2023-04-08T10:55:35;19.73;;;14.75;;
43620;SDS011;29213;50.770;7.298;2023-04-08T10:58:08;20.67;;;15.98;;
43620;SDS011;29213;50.770;7.298;2023-04-08T11:00:43;21.00;;;16.55;;
43620;SDS011;29213;50.770;7.298;2023-04-08T11:03:09;19.83;;;14.85;;
43620;SDS011;29213;50.770;7.298;2023-04-08T11:05:35;18.55;;;14.55;;
43620;SDS011;29213;50.770;7.298;2023-04-08T11:08:02;18.63;;;14.63;;
43620;SDS011;29213;50.770;7.298;2023-04-08T11:10:35;22.90;;;16.05;;
43620;SDS011;29213;50.770;7.298;2023-04-08T11:13:02;21.05;;;15.80;;
43620;SDS011;29213;50.770;7.298;2023-04-08T11:15:30;20.25;;;15.35;;
43620;SDS011;29213;50.770;7.298;2023-04-08T11:17:57;21.45;;;15.95;;
43620;SDS011;29213;50.770;7.298;2023-04-08T11:20:23;23.20;;;16.23;;
43620;SDS011;29213;50.770;7.298;2023-04-08T11:22:49;20.35;;;15.30;;
43620;SDS011;29213;50.770;7.298;2023-04-08T11:25:14;21.48;;;15.65;;
43620;SDS011;29213;50.770;7.298;2023-04-08T11:27:39;16.52;;;13.63;;
43620;SDS011;29213;50.770;7.298;2023-04-08T11:30:06;21.00;;;15.65;;
43620;SDS011;29213;50.770;7.298;2023-04-08T11:32:33;22.30;;;16.02;;
43620;SDS011;29213;50.770;7.298;2023-04-08T11:35:00;21.08;;;16.20;;
43620;SDS011;29213;50.770;7.298;2023-04-08T11:37:35;20.95;;;15.85;;
43620;SDS011;29213;50.770;7.298;2023-04-08T11:40:05;20.30;;;15.52;;
43620;SDS011;29213;50.770;7.298;2023-04-08T11:45:37;15.05;;;10.70;;
43620;SDS011;29213;50.770;7.298;2023-04-08T11:48:10;16.75;;;12.18;;
43620;SDS011;29213;50.770;7.298;2023-04-08T11:50:38;20.98;;;16.00;;
43620;SDS011;29213;50.770;7.298;2023-04-08T11:53:15;19.98;;;15.55;;
43620;SDS011;29213;50.770;7.298;2023-04-08T11:55:43;19.00;;;14.70;;
43620;SDS011;29213;50.770;7.298;2023-04-08T11:58:09;21.35;;;16.13;;
43620;SDS011;29213;50.770;7.298;2023-04-08T12:00:35;21.52;;;16.85;;
43620;SDS011;29213;50.770;7.298;2023-04-08T12:03:01;19.80;;;15.05;;
43620;SDS011;29213;50.770;7.298;2023-04-08T12:05:27;22.95;;;17.52;;
43620;SDS011;29213;50.770;7.298;2023-04-08T12:07:52;22.67;;;16.77;;
43620;SDS011;29213;50.770;7.298;2023-04-08T12:10:17;22.73;;;17.13;;
43620;SDS011;29213;50.770;7.298;2023-04-08T12:12:43;20.63;;;15.45;;
43620;SDS011;29213;50.770;7.298;2023-04-08T12:15:09;20.58;;;15.60;;
43620;SDS011;29213;50.770;7.298;2023-04-08T12:17:35;21.15;;;16.45;;
43620;SDS011;29213;50.770;7.298;2023-04-08T12:20:00;22.02;;;16.38;;
43620;SDS011;29213;50.770;7.298;2023-04-08T12:22:26;19.30;;;14.55;;
43620;SDS011;29213;50.770;7.298;2023-04-08T12:24:52;20.73;;;15.57;;
43620;SDS011;29213;50.770;7.298;2023-04-08T12:27:17;17.30;;;12.73;;
43620;SDS011;29213;50.770;7.298;2023-04-08T12:29:42;20.33;;;15.23;;
43620;SDS011;29213;50.770;7.298;2023-04-08T12:32:08;25.20;;;18.13;;
43620;SDS011;29213;50.770;7.298;2023-04-08T12:34:34;24.40;;;17.38;;
43620;SDS011;29213;50.770;7.298;2023-04-08T12:36:59;22.80;;;17.40;;
43620;SDS011;29213;50.770;7.298;2023-04-08T12:39:25;21.38;;;16.05;;
43620;SDS011;29213;50.770;7.298;2023-04-08T12:41:50;23.77;;;16.73;;
43620;SDS011;29213;50.770;7.298;2023-04-08T12:44:16;19.45;;;14.70;;
43620;SDS011;29213;50.770;7.298;2023-04-08T12:46:41;19.95;;;15.15;;
43620;SDS011;29213;50.770;7.298;2023-04-08T12:49:07;18.88;;;14.38;;
43620;SDS011;29213;50.770;7.298;2023-04-08T12:51:33;17.02;;;13.10;;
43620;SDS011;29213;50.770;7.298;2023-04-08T12:54:00;17.33;;;12.85;;
43620;SDS011;29213;50.770;7.298;2023-04-08T12:56:27;17.88;;;13.95;;
43620;SDS011;29213;50.770;7.298;2023-04-08T12:58:53;14.32;;;10.80;;
43620;SDS011;29213;50.770;7.298;2023-04-08T13:01:19;10.63;;;8.50;;
43620;SDS011;29213;50.770;7.298;2023-04-08T13:03:45;10.52;;;7.43;;
43620;SDS011;29213;50.770;7.298;2023-04-08T13:06:11;10.13;;;7.43;;
43620;SDS011;29213;50.770;7.298;2023-04-08T13:08:37;10.00;;;7.75;;
43620;SDS011;29213;50.770;7.298;2023-04-08T13:11:02;10.65;;;7.70;;
43620;SDS011;29213;50.770;7.298;2023-04-08T13:13:28;10.43;;;6.97;;
43620;SDS011;29213;50.770;7.298;2023-04-08T13:15:54;10.32;;;7.43;;
43620;SDS011;29213;50.770;7.298;2023-04-08T13:18:20;9.60;;;7.28;;
43620;SDS011;29213;50.770;7.298;2023-04-08T13:20:46;10.75;;;7.40;;
43620;SDS011;29213;50.770;7.298;2023-04-08T13:23:11;11.50;;;8.10;;
43620;SDS011;29213;50.770;7.298;2023-04-08T13:25:39;9.70;;;7.80;;
43620;SDS011;29213;50.770;7.298;2023-04-08T13:28:05;10.77;;;8.00;;
43620;SDS011;29213;50.770;7.298;2023-04-08T13:30:30;10.43;;;8.02;;
43620;SDS011;29213;50.770;7.298;2023-04-08T13:32:56;10.10;;;7.43;;
43620;SDS011;29213;50.770;7.298;2023-04-08T13:35:21;10.52;;;7.72;;
43620;SDS011;29213;50.770;7.298;2023-04-08T13:37:47;9.57;;;7.20;;
43620;SDS011;29213;50.770;7.298;2023-04-08T13:40:12;9.45;;;7.10;;
43620;SDS011;29213;50.770;7.298;2023-04-08T13:42:38;9.77;;;7.20;;
43620;SDS011;29213;50.770;7.298;2023-04-08T13:45:03;9.75;;;6.28;;
43620;SDS011;29213;50.770;7.298;2023-04-08T13:47:29;9.02;;;6.68;;
43620;SDS011;29213;50.770;7.298;2023-04-08T13:49:55;7.60;;;5.65;;
43620;SDS011;29213;50.770;7.298;2023-04-08T13:52:21;10.65;;;6.72;;
43620;SDS011;29213;50.770;7.298;2023-04-08T13:54:46;8.95;;;5.75;;
43620;SDS011;29213;50.770;7.298;2023-04-08T13:57:12;9.02;;;6.60;;
43620;SDS011;29213;50.770;7.298;2023-04-08T13:59:37;8.95;;;6.50;;
43620;SDS011;29213;50.770;7.298;2023-04-08T14:02:02;8.57;;;6.25;;
43620;SDS011;29213;50.770;7.298;2023-04-08T14:04:31;9.85;;;6.95;;
43620;SDS011;29213;50.770;7.298;2023-04-08T14:07:04;9.38;;;6.72;;
43620;SDS011;29213;50.770;7.298;2023-04-08T14:09:29;8.90;;;6.28;;
43620;SDS011;29213;50.770;7.298;2023-04-08T14:11:55;13.32;;;7.78;;
43620;SDS011;29213;50.770;7.298;2023-04-08T14:14:21;11.45;;;7.80;;
43620;SDS011;29213;50.770;7.298;2023-04-08T14:16:46;11.20;;;8.43;;
43620;SDS011;29213;50.770;7.298;2023-04-08T14:19:12;10.43;;;7.43;;
43620;SDS011;29213;50.770;7.298;2023-04-08T14:21:38;11.40;;;7.97;;
43620;SDS011;29213;50.770;7.298;2023-04-08T14:24:03;9.43;;;6.88;;
43620;SDS011;29213;50.770;7.298;2023-04-08T14:26:29;9.35;;;6.72;;
43620;SDS011;29213;50.770;7.298;2023-04-08T14:28:57;8.30;;;6.28;;
43620;SDS011;29213;50.770;7.298;2023-04-08T14:31:22;9.32;;;6.45;;
43620;SDS011;29213;50.770;7.298;2023-04-08T14:33:48;8.70;;;6.50;;
43620;SDS011;29213;50.770;7.298;2023-04-08T14:36:13;10.32;;;7.30;;
43620;SDS011;29213;50.770;7.298;2023-04-08T14:38:38;9.25;;;7.10;;
43620;SDS011;29213;50.770;7.298;2023-04-08T14:41:04;9.05;;;6.50;;
43620;SDS011;29213;50.770;7.298;2023-04-08T14:43:30;9.13;;;6.78;;
43620;SDS011;29213;50.770;7.298;2023-04-08T14:45:55;8.73;;;6.35;;
43620;SDS011;29213;50.770;7.298;2023-04-08T14:48:21;9.60;;;6.57;;